OIIIOIKK

Guest
Details From OIII - Teheran Mehrabad Intl
To OIKK - Kerman
Flight Number -
Tags Generated
Created
Modified
Stats Distance 434 nm / 804 km
Max Altitude 0 ft / 0 m
Waypoints 3
Social Downloads 7
Likes 0
Share VATSIM

Download

Looking for another format? Having issues loading an existing format? Contact us
Advertisement - Login to hide

Notes

Generated

Route

OIII KER OIKK

ID Type Via Altitude Latitude Longitude Leg Dist Tot Dist Heading (true) Name
O OIII APT - 0 ft / 0 m 35.69663˚ 51.29216˚ - 0 nm - -
KER NDB - 0 ft / 0 m 30.26567˚ 56.96072˚ 433 nm 433 nm 137° / 140° KERMAN NDB
O OIKK APT - 0 ft / 0 m 30.25735˚ 56.95072˚ 0 nm 434 nm 226° / 226° -

Altitude Profile

Advertisement - Login to hide

Weather


0- 5 10 15 20 25 30 35+ Temperature / ° C

Clouds and Precipitation
Forecast for 2018-05-25 00:00 UTC. Updated 4 hours ago

Ground ~20,000 ft ~40,000 ft Winds

OIII

Details ICAO OIII (THR)
Name Teheran Mehrabad Intl
Region Iran
Timezone Asia/Tehran (UTC+4.5)
Stats Elevation 3,962 ft / 1,208 m (AMSL)
Location 35.692631° 51.317409°
Runways 3
Magnetic Variation 4.755° E

METAR

OIII 250330Z 12006KT 9999 FEW100 23/03 Q1015 A2999

Decode

TAF

TAF OIII 241730Z 2418/2524

Decode

Departure Runways

ID Width Length Bearing (true) Bearing (mag) Surface Threshold Offset Overrun Length
09 131 ft / 40 m 1,553 ft / 473 m 88.25° 83.49° Concrete 0 ft / 0 m 160 ft / 49 m
11L 148 ft / 45 m 13,077 ft / 3,986 m 109.70° 104.94° Asphalt 0 ft / 0 m 1,000 ft / 305 m
11R 197 ft / 60 m 13,227 ft / 4,032 m 109.74° 104.98° Asphalt 3,075 ft / 937 m 1,000 ft / 305 m
27 131 ft / 40 m 1,553 ft / 473 m 268.25° 263.49° Concrete 0 ft / 0 m 90 ft / 27 m
29L 197 ft / 60 m 13,227 ft / 4,032 m 289.77° 285.01° Asphalt 0 ft / 0 m 280 ft / 85 m
29R 148 ft / 45 m 13,077 ft / 3,986 m 289.72° 284.96° Asphalt 0 ft / 0 m 400 ft / 122 m

OIKK

Details ICAO OIKK (KER)
Name KERMAN
Region Iran
Timezone Asia/Tehran (UTC+4.5)
Stats Elevation 5,741 ft / 1,750 m (AMSL)
Location 30.268055° 56.955332°
Runways 2
Magnetic Variation 2.938° E

METAR

OIKK 250300Z 00000KT 9999 FEW040 17/00 Q1019 A3012

Decode

TAF

TAF OIKK 241730Z 2418/2524 16004MPS 7000 SCT045 SCT100 TEMPO 2510/2515 27006MPS FEW035TCU SCT040 SCT100

Decode

Destination Runways

ID Width Length Bearing (true) Bearing (mag) Surface Threshold Offset Overrun Length
05 148 ft / 45 m 6,658 ft / 2,029 m 53.18° 50.24° Asphalt 0 ft / 0 m 0 ft / 0 m
16 148 ft / 45 m 12,653 ft / 3,857 m 158.43° 155.49° Asphalt 0 ft / 0 m 344 ft / 105 m
23 148 ft / 45 m 6,658 ft / 2,029 m 233.19° 230.25° Asphalt 0 ft / 0 m 0 ft / 0 m
34 148 ft / 45 m 12,653 ft / 3,857 m 338.44° 335.50° Asphalt 0 ft / 0 m 488 ft / 149 m

Popular Alternatives